Time;durP1;ratioP1;P1;durP2;ratioP2;P2;SDS_P1;SDS_P2;PMS_P1;PMS_P2;Temp;Humidity;BMP_temperature;BMP_pressure;BME280_temperature;BME280_humidity;BME280_pressure;Samples;Min_cycle;Max_cycle;Signal;HPM_P1;HPM_P2
2022/08/15 00:00:54;;;;;;;23.27;16.00;;;19.30;99.90;;;;;;5032987;28;20037;-60
2022/08/15 00:03:31;;;;;;;15.60;13.40;;;19.30;99.90;;;;;;5032341;28;20705;-60
2022/08/15 00:06:03;;;;;;;16.65;13.25;;;19.30;99.90;;;;;;5032184;28;20022;-60
2022/08/15 00:08:32;;;;;;;21.00;12.93;;;19.20;99.90;;;;;;5030905;28;20030;-59
2022/08/15 00:11:05;;;;;;;14.73;12.60;;;19.20;99.90;;;;;;5032654;28;20025;-60
2022/08/15 00:13:31;;;;;;;22.60;13.95;;;19.20;99.90;;;;;;5026923;28;20238;-59
2022/08/15 00:15:57;;;;;;;13.75;11.10;;;19.10;99.90;;;;;;5032146;28;20035;-59
2022/08/15 00:18:27;;;;;;;17.90;12.88;;;19.00;99.90;;;;;;5030455;28;20116;-60
2022/08/15 00:20:53;;;;;;;20.02;13.57;;;19.00;99.90;;;;;;5024996;28;20084;-60
2022/08/15 00:23:26;;;;;;;22.30;16.33;;;19.00;99.90;;;;;;5032137;28;20029;-59
2022/08/15 00:25:58;;;;;;;17.35;14.27;;;19.00;99.90;;;;;;5032009;28;20044;-59
2022/08/15 00:28:25;;;;;;;16.15;13.75;;;19.00;99.90;;;;;;5028838;28;20022;-60
2022/08/15 00:30:51;;;;;;;22.05;16.40;;;19.00;99.90;;;;;;5031950;28;20055;-59
2022/08/15 00:33:17;;;;;;;18.20;14.20;;;19.00;99.90;;;;;;5032151;28;20025;-59
2022/08/15 00:35:50;;;;;;;17.30;13.65;;;19.00;99.90;;;;;;5030328;28;20041;-59
2022/08/15 00:38:20;;;;;;;26.48;17.20;;;18.90;99.90;;;;;;5032261;28;20057;-60
2022/08/15 00:43:44;;;;;;;24.23;19.48;;;18.80;99.90;;;;;;5021012;28;20084;-60
2022/08/15 00:46:12;;;;;;;27.67;21.90;;;18.70;99.90;;;;;;5031950;28;20040;-61
2022/08/15 00:48:44;;;;;;;23.98;18.58;;;18.70;99.90;;;;;;5030056;28;20044;-60
2022/08/15 00:51:18;;;;;;;25.75;20.48;;;18.70;99.90;;;;;;5032011;28;20033;-60
2022/08/15 00:53:49;;;;;;;27.27;20.65;;;18.70;99.90;;;;;;5029925;28;20389;-60
2022/08/15 00:56:16;;;;;;;28.63;20.25;;;18.60;99.90;;;;;;5031586;28;20038;-60
2022/08/15 00:58:44;;;;;;;26.85;18.83;;;18.60;99.90;;;;;;5020813;28;20037;-60
2022/08/15 01:01:12;;;;;;;24.42;18.70;;;18.50;99.90;;;;;;5030435;28;20116;-60
2022/08/15 01:03:44;;;;;;;24.42;17.30;;;18.50;99.90;;;;;;5029765;28;20112;-60
2022/08/15 01:06:10;;;;;;;22.63;16.67;;;18.50;99.90;;;;;;5031424;28;20483;-60
2022/08/15 01:08:40;;;;;;;24.98;17.05;;;18.60;99.90;;;;;;5030148;28;20033;-60
2022/08/15 01:11:17;;;;;;;22.05;17.00;;;18.60;99.90;;;;;;5031488;28;20090;-59
2022/08/15 01:13:45;;;;;;;19.52;16.30;;;18.60;99.90;;;;;;5029839;28;20036;-61
2022/08/15 01:16:11;;;;;;;27.33;18.42;;;18.60;99.90;;;;;;5031794;28;20112;-62
2022/08/15 01:18:38;;;;;;;26.35;18.38;;;18.60;99.90;;;;;;5029587;28;20501;-60
2022/08/15 01:21:20;;;;;;;25.40;18.05;;;18.50;99.90;;;;;;5031835;28;20029;-60
2022/08/15 01:24:07;;;;;;;21.08;16.33;;;18.60;99.90;;;;;;5027691;28;20497;-60
2022/08/15 01:26:33;;;;;;;24.13;18.67;;;18.60;99.90;;;;;;5029202;28;20068;-60
2022/08/15 01:29:00;;;;;;;27.27;20.77;;;18.60;99.90;;;;;;5030901;28;20037;-61
2022/08/15 01:31:26;;;;;;;28.90;20.25;;;18.70;99.90;;;;;;5029357;28;20030;-61
2022/08/15 01:33:56;;;;;;;27.58;21.17;;;18.70;99.90;;;;;;5030668;28;20104;-61
2022/08/15 01:36:24;;;;;;;23.92;19.00;;;18.70;99.90;;;;;;5031139;28;20025;-61
2022/08/15 01:39:29;;;;;;;33.03;22.25;;;18.70;99.90;;;;;;5030989;28;20017;-61
2022/08/15 01:42:16;;;;;;;26.30;20.25;;;18.60;99.90;;;;;;5019695;28;20041;-61
2022/08/15 01:44:47;;;;;;;28.13;21.27;;;18.70;99.90;;;;;;5028736;28;20057;-61
2022/08/15 01:47:37;;;;;;;30.93;21.90;;;18.70;99.90;;;;;;5030792;28;20028;-61
2022/08/15 01:50:12;;;;;;;32.55;21.70;;;18.70;99.90;;;;;;5030598;28;20037;-61
2022/08/15 01:52:45;;;;;;;31.92;21.42;;;18.60;99.90;;;;;;5028765;28;20083;-59
2022/08/15 01:55:14;;;;;;;24.33;21.48;;;18.70;99.90;;;;;;5030585;28;20107;-61
2022/08/15 01:57:40;;;;;;;32.13;22.42;;;18.70;99.90;;;;;;5028616;28;20477;-60
2022/08/15 02:00:08;;;;;;;31.02;22.88;;;18.80;99.90;;;;;;5030483;28;20036;-60
2022/08/15 02:02:34;;;;;;;27.60;21.88;;;18.90;99.90;;;;;;5028526;28;20083;-60
2022/08/15 02:05:00;;;;;;;22.30;19.45;;;18.90;99.90;;;;;;5030468;28;20112;-60
2022/08/15 02:07:28;;;;;;;26.48;20.67;;;19.00;99.90;;;;;;5028896;28;20496;-60
2022/08/15 02:09:55;;;;;;;24.20;20.85;;;19.00;99.90;;;;;;5030324;28;20046;-60
2022/08/15 02:12:25;;;;;;;20.48;18.05;;;19.00;99.90;;;;;;5029739;28;20032;-60
2022/08/15 02:14:51;;;;;;;24.40;19.17;;;19.00;99.90;;;;;;5029834;28;20550;-60
2022/08/15 02:17:17;;;;;;;26.90;19.52;;;19.00;99.90;;;;;;5030185;28;20025;-60
2022/08/15 02:19:46;;;;;;;30.88;20.02;;;19.00;99.90;;;;;;5028709;28;20033;-60
2022/08/15 02:22:13;;;;;;;24.20;21.60;;;19.00;99.90;;;;;;5029959;28;20052;-60
2022/08/15 02:24:39;;;;;;;29.73;22.30;;;19.00;99.90;;;;;;5028427;28;20036;-60
2022/08/15 02:27:05;;;;;;;29.35;22.73;;;18.90;99.90;;;;;;5029714;28;20033;-60
2022/08/15 02:29:31;;;;;;;30.00;26.52;;;18.80;99.90;;;;;;5027999;28;20034;-60
2022/08/15 02:32:06;;;;;;;27.58;22.67;;;18.70;99.90;;;;;;5029902;28;20112;-60
2022/08/15 02:34:34;;;;;;;22.80;20.38;;;18.70;99.90;;;;;;5027872;28;20041;-60
2022/08/15 02:37:04;;;;;;;31.55;24.67;;;18.70;99.90;;;;;;5030024;28;20041;-60
2022/08/15 02:39:29;;;;;;;24.83;22.08;;;18.70;99.90;;;;;;5028136;28;20025;-60
2022/08/15 02:41:55;;;;;;;28.85;21.23;;;18.70;99.90;;;;;;5029512;28;20397;-60
2022/08/15 02:44:22;;;;;;;28.75;23.38;;;18.70;99.90;;;;;;5029360;28;20045;-60
2022/08/15 02:46:51;;;;;;;24.20;20.95;;;18.70;99.90;;;;;;5021672;28;20029;-60
2022/08/15 02:49:18;;;;;;;30.13;23.85;;;18.70;99.90;;;;;;5029882;28;20091;-59
2022/08/15 02:51:46;;;;;;;27.05;23.48;;;18.70;99.90;;;;;;5027557;28;20443;-59
2022/08/15 02:54:15;;;;;;;27.63;21.45;;;18.70;99.90;;;;;;5029657;28;20033;-60
2022/08/15 02:56:41;;;;;;;28.77;22.88;;;18.60;99.90;;;;;;5027578;28;20108;-60
2022/08/15 02:59:07;;;;;;;29.30;22.15;;;18.60;99.90;;;;;;5029803;28;20156;-61
2022/08/15 03:01:38;;;;;;;25.83;21.83;;;18.50;99.90;;;;;;5027702;28;20032;-61
2022/08/15 03:04:11;;;;;;;25.97;21.60;;;18.50;99.90;;;;;;5029425;28;20029;-60
2022/08/15 03:06:37;;;;;;;23.40;20.90;;;18.50;99.90;;;;;;5027655;28;20056;-60
2022/08/15 03:09:08;;;;;;;25.10;22.30;;;18.40;99.90;;;;;;5029222;28;20127;-60
2022/08/15 03:11:39;;;;;;;25.75;21.75;;;18.40;99.90;;;;;;5021490;28;20075;-60
2022/08/15 03:14:07;;;;;;;25.90;21.73;;;18.40;99.90;;;;;;5028503;28;20041;-60
2022/08/15 03:16:42;;;;;;;29.73;23.75;;;18.30;99.90;;;;;;5027954;28;20037;-60
2022/08/15 03:19:08;;;;;;;27.17;21.80;;;18.30;99.90;;;;;;5028366;28;20029;-60
2022/08/15 03:21:35;;;;;;;29.58;22.75;;;18.30;99.90;;;;;;5027740;28;20033;-60
2022/08/15 03:24:02;;;;;;;27.17;23.10;;;18.30;99.90;;;;;;5027381;28;20461;-60
2022/08/15 03:26:28;;;;;;;33.13;23.25;;;18.30;99.90;;;;;;5030826;28;20524;-63
2022/08/15 03:28:55;;;;;;;27.83;21.27;;;18.30;99.90;;;;;;5032712;28;20037;-59
2022/08/15 03:31:21;;;;;;;26.17;20.27;;;18.30;99.90;;;;;;5033388;28;20021;-59
2022/08/15 03:33:47;;;;;;;23.75;20.80;;;18.20;99.90;;;;;;5031344;28;20067;-59
2022/08/15 03:36:15;;;;;;;32.47;23.45;;;18.20;99.90;;;;;;5032714;28;20487;-59
2022/08/15 03:38:41;;;;;;;25.48;21.67;;;18.20;99.90;;;;;;5031282;28;20075;-58
2022/08/15 03:41:08;;;;;;;26.48;20.55;;;18.20;99.90;;;;;;5032797;28;20053;-60
2022/08/15 03:43:37;;;;;;;23.17;17.20;;;18.20;99.90;;;;;;5039222;22;20140;-58
2022/08/15 03:46:09;;;;;;;24.17;16.80;;;18.20;99.90;;;;;;5032855;28;20025;-60
2022/08/15 03:48:42;;;;;;;22.85;17.73;;;18.30;99.90;;;;;;5029574;28;20025;-60
2022/08/15 03:51:10;;;;;;;23.88;17.92;;;18.40;99.90;;;;;;5024083;28;20071;-59
2022/08/15 03:53:45;;;;;;;26.05;18.25;;;18.40;99.90;;;;;;5031242;28;20497;-60
2022/08/15 03:56:13;;;;;;;23.00;19.35;;;18.50;99.90;;;;;;5030381;28;20604;-60
2022/08/15 03:58:40;;;;;;;22.25;18.70;;;18.50;99.90;;;;;;5030521;28;20033;-60
2022/08/15 04:01:09;;;;;;;22.65;18.92;;;18.50;99.90;;;;;;5030585;28;20413;-60
2022/08/15 04:03:35;;;;;;;25.75;19.15;;;18.50;99.90;;;;;;5031004;28;20462;-59
2022/08/15 04:06:07;;;;;;;25.13;18.42;;;18.50;99.90;;;;;;5032546;28;20030;-59
2022/08/15 04:08:34;;;;;;;24.30;19.67;;;18.40;99.90;;;;;;5022977;28;20026;-61
2022/08/15 04:11:02;;;;;;;26.20;19.80;;;18.40;99.90;;;;;;5032401;28;20112;-61
2022/08/15 04:13:28;;;;;;;25.63;19.20;;;18.40;99.90;;;;;;5029328;28;20524;-60
2022/08/15 04:15:57;;;;;;;25.00;18.92;;;18.40;99.90;;;;;;5031975;28;20033;-60
2022/08/15 04:18:24;;;;;;;25.08;18.63;;;18.40;99.90;;;;;;5023966;28;20025;-59
2022/08/15 04:20:57;;;;;;;28.67;18.65;;;18.40;99.90;;;;;;5032138;28;20026;-59
2022/08/15 04:23:23;;;;;;;28.38;18.80;;;18.40;99.90;;;;;;5031833;28;20060;-59
2022/08/15 04:25:49;;;;;;;26.70;17.70;;;18.40;99.90;;;;;;5032191;28;20481;-59
2022/08/15 04:28:17;;;;;;;23.23;19.73;;;18.40;99.90;;;;;;5028864;28;20022;-60
2022/08/15 04:30:45;;;;;;;21.25;17.02;;;18.40;99.90;;;;;;5030673;28;20920;-60
2022/08/15 04:33:21;;;;;;;25.15;18.67;;;18.40;99.90;;;;;;5031967;28;20029;-61
2022/08/15 04:35:58;;;;;;;22.13;17.88;;;18.40;99.90;;;;;;5021603;28;20029;-59
2022/08/15 04:38:24;;;;;;;28.88;19.45;;;18.40;99.90;;;;;;5029869;28;20049;-59
2022/08/15 04:40:50;;;;;;;27.15;17.90;;;18.40;99.90;;;;;;5031984;28;20112;-59
2022/08/15 04:43:19;;;;;;;28.92;18.88;;;18.40;99.90;;;;;;5031111;28;20038;-59
2022/08/15 04:45:44;;;;;;;27.67;17.92;;;18.50;99.90;;;;;;5029983;28;20034;-59
2022/08/15 04:48:14;;;;;;;26.02;19.05;;;18.50;99.90;;;;;;5031690;28;20159;-59
2022/08/15 04:50:42;;;;;;;27.55;17.90;;;18.40;99.90;;;;;;5027465;28;20041;-59
2022/08/15 04:53:08;;;;;;;26.90;16.90;;;18.50;99.90;;;;;;5026303;28;20017;-60
2022/08/15 04:55:35;;;;;;;25.35;17.77;;;18.50;99.90;;;;;;5029545;28;20036;-60
2022/08/15 04:58:01;;;;;;;23.25;17.35;;;18.60;99.90;;;;;;5031136;28;20037;-60
2022/08/15 05:00:30;;;;;;;24.67;18.05;;;18.60;99.90;;;;;;5019449;28;20030;-60
2022/08/15 05:03:10;;;;;;;27.33;18.38;;;18.70;99.90;;;;;;5031228;28;20025;-60
2022/08/15 05:05:44;;;;;;;25.35;17.05;;;18.70;99.90;;;;;;5029497;28;20474;-59
2022/08/15 05:08:10;;;;;;;21.58;16.98;;;18.70;99.90;;;;;;5022758;28;20029;-60
2022/08/15 05:10:35;;;;;;;22.27;17.08;;;18.80;99.90;;;;;;5029780;28;20096;-60
2022/08/15 05:13:26;;;;;;;23.08;16.45;;;18.80;99.90;;;;;;5030601;28;20141;-59
2022/08/15 05:15:53;;;;;;;22.27;15.38;;;18.80;99.90;;;;;;5028196;28;20084;-60
2022/08/15 05:18:20;;;;;;;21.05;16.40;;;18.80;99.90;;;;;;5022351;28;20053;-60
2022/08/15 05:20:45;;;;;;;21.10;16.27;;;18.90;99.90;;;;;;5029435;28;20432;-60
2022/08/15 05:23:14;;;;;;;26.90;17.90;;;18.90;99.90;;;;;;5031124;28;20025;-60
2022/08/15 05:25:43;;;;;;;24.88;16.70;;;18.90;99.90;;;;;;5029163;28;20053;-60
2022/08/15 05:28:14;;;;;;;22.77;16.75;;;19.00;99.90;;;;;;5030158;28;20033;-60
2022/08/15 05:30:40;;;;;;;22.30;16.00;;;19.00;99.90;;;;;;5019953;28;20064;-60
2022/08/15 05:33:18;;;;;;;22.33;15.13;;;19.10;99.90;;;;;;5030890;28;20021;-60
2022/08/15 05:35:52;;;;;;;21.63;15.13;;;19.20;99.90;;;;;;5028780;28;20118;-59
2022/08/15 05:38:25;;;;;;;22.33;14.55;;;19.20;99.90;;;;;;5030166;28;20014;-59
2022/08/15 05:40:56;;;;;;;23.73;14.43;;;19.20;99.90;;;;;;5030693;28;20033;-59
2022/08/15 05:43:32;;;;;;;20.98;14.10;;;19.40;99.90;;;;;;5029766;28;20045;-59
2022/08/15 05:46:18;;;;;;;25.80;14.52;;;19.50;99.90;;;;;;5020712;28;20132;-59
2022/08/15 05:48:50;;;;;;;17.80;14.30;;;19.50;99.90;;;;;;5026515;28;20509;-59
2022/08/15 05:51:29;;;;;;;25.02;14.95;;;19.60;99.90;;;;;;5028660;28;20037;-59
2022/08/15 05:54:33;;;;;;;17.35;12.70;;;19.60;99.90;;;;;;5025299;28;20381;-60
2022/08/15 05:57:12;;;;;;;23.08;12.75;;;19.60;99.90;;;;;;5023255;28;20122;-60
2022/08/15 05:59:46;;;;;;;19.35;13.38;;;19.60;99.90;;;;;;5022881;28;20040;-60
2022/08/15 06:02:45;;;;;;;16.48;11.93;;;19.60;99.90;;;;;;5027968;28;20022;-60
2022/08/15 06:05:29;;;;;;;17.48;13.10;;;19.50;99.90;;;;;;5016855;28;20090;-60
2022/08/15 06:07:59;;;;;;;20.15;14.32;;;19.60;99.90;;;;;;5022568;28;20041;-61
2022/08/15 06:10:53;;;;;;;18.67;13.02;;;19.60;99.90;;;;;;5024138;28;20477;-60
2022/08/15 06:13:27;;;;;;;19.05;13.00;;;19.60;99.90;;;;;;5025600;28;20021;-60
2022/08/15 06:16:16;;;;;;;18.05;12.73;;;19.60;99.90;;;;;;5029795;28;20033;-60
2022/08/15 06:18:43;;;;;;;20.88;13.40;;;19.60;99.90;;;;;;5024658;28;20033;-59
2022/08/15 06:21:37;;;;;;;18.30;12.70;;;19.70;99.90;;;;;;5028648;28;20528;-59
2022/08/15 06:24:21;;;;;;;22.73;13.63;;;19.80;99.90;;;;;;5022908;28;20021;-60
2022/08/15 06:27:25;;;;;;;19.45;12.43;;;19.80;99.90;;;;;;5027145;28;20041;-60
2022/08/15 06:30:13;;;;;;;15.05;12.15;;;19.90;99.90;;;;;;5020423;28;20091;-59
2022/08/15 06:32:49;;;;;;;16.52;12.30;;;19.90;99.90;;;;;;5027704;28;20025;-60
2022/08/15 06:35:30;;;;;;;17.55;12.63;;;19.90;99.90;;;;;;5028604;28;20040;-60
2022/08/15 06:38:19;;;;;;;16.98;12.77;;;19.90;99.90;;;;;;5018888;28;20033;-60
2022/08/15 06:40:51;;;;;;;18.70;15.30;;;20.00;99.90;;;;;;5021272;28;20034;-60
2022/08/15 06:43:16;;;;;;;16.52;13.02;;;20.00;99.90;;;;;;5022988;28;20064;-60
2022/08/15 06:45:52;;;;;;;20.05;12.75;;;20.10;99.90;;;;;;5024335;28;20030;-60
2022/08/15 06:48:30;;;;;;;18.50;12.38;;;20.10;99.90;;;;;;5023067;28;20029;-59
2022/08/15 06:50:59;;;;;;;18.48;12.65;;;20.10;99.90;;;;;;5018295;28;20104;-61
2022/08/15 06:53:36;;;;;;;15.57;11.88;;;20.10;99.90;;;;;;5026679;28;20021;-60
2022/08/15 06:56:17;;;;;;;20.52;11.75;;;20.20;99.90;;;;;;5027502;28;20029;-58
2022/08/15 06:58:53;;;;;;;13.55;11.15;;;20.20;99.90;;;;;;5025048;28;20033;-60
2022/08/15 07:01:30;;;;;;;17.67;10.65;;;20.20;99.90;;;;;;5021261;28;20018;-60
2022/08/15 07:04:21;;;;;;;14.02;9.68;;;20.30;99.90;;;;;;5026751;28;20109;-60
2022/08/15 07:07:18;;;;;;;15.52;10.00;;;20.40;99.90;;;;;;5021502;28;20469;-61
2022/08/15 07:09:57;;;;;;;14.82;9.25;;;20.50;99.90;;;;;;5026550;28;20091;-61
2022/08/15 07:12:40;;;;;;;13.50;9.23;;;20.60;99.90;;;;;;5025767;28;20112;-61
2022/08/15 07:15:37;;;;;;;12.82;8.82;;;20.60;99.90;;;;;;5022683;28;20026;-61
2022/08/15 07:18:09;;;;;;;11.52;7.43;;;20.70;99.90;;;;;;5036603;28;20100;-60
2022/08/15 07:20:43;;;;;;;15.95;7.85;;;20.80;99.90;;;;;;5026219;28;20482;-60
2022/08/15 07:23:26;;;;;;;12.63;7.82;;;20.80;99.90;;;;;;5027336;28;20029;-60
2022/08/15 07:25:53;;;;;;;12.65;8.13;;;20.80;99.90;;;;;;5024611;28;20026;-60
2022/08/15 07:28:25;;;;;;;12.32;7.50;;;20.90;99.90;;;;;;5027539;28;20041;-60
2022/08/15 07:31:02;;;;;;;11.52;7.68;;;20.90;99.90;;;;;;5027776;28;20029;-60
2022/08/15 07:33:47;;;;;;;10.80;7.85;;;20.90;99.90;;;;;;5026901;28;20381;-60
2022/08/15 07:36:50;;;;;;;11.43;7.28;;;21.00;99.90;;;;;;5028482;28;20022;-61
2022/08/15 07:39:25;;;;;;;8.10;6.22;;;21.10;99.90;;;;;;5013743;28;20037;-61
2022/08/15 07:41:50;;;;;;;8.00;6.45;;;21.20;99.90;;;;;;5026381;28;20021;-62
2022/08/15 07:44:29;;;;;;;9.35;6.72;;;21.40;99.90;;;;;;5027910;28;20049;-60
2022/08/15 07:47:09;;;;;;;11.57;6.45;;;21.50;99.90;;;;;;5028132;28;20029;-60
2022/08/15 07:49:37;;;;;;;12.00;6.80;;;21.50;99.90;;;;;;5023802;28;20067;-60
2022/08/15 07:52:15;;;;;;;14.80;7.07;;;21.50;99.90;;;;;;5026983;28;20025;-60
2022/08/15 07:54:48;;;;;;;10.77;6.57;;;21.40;99.90;;;;;;5023865;28;20033;-60
2022/08/15 07:57:26;;;;;;;9.13;6.90;;;21.30;99.90;;;;;;5024352;28;20021;-60
2022/08/15 08:00:10;;;;;;;10.93;7.53;;;21.20;99.90;;;;;;5024656;28;20071;-60
2022/08/15 08:03:01;;;;;;;10.90;7.90;;;21.20;99.90;;;;;;5026804;28;20032;-60
2022/08/15 08:05:33;;;;;;;11.30;7.35;;;21.20;99.90;;;;;;5015628;28;20557;-60
2022/08/15 08:08:04;;;;;;;11.32;7.43;;;21.10;99.90;;;;;;5027841;28;20029;-60
2022/08/15 08:10:32;;;;;;;13.07;7.57;;;21.00;99.90;;;;;;5027255;28;20076;-59
2022/08/15 08:12:58;;;;;;;10.38;6.88;;;20.90;99.90;;;;;;5031161;28;20022;-61
2022/08/15 08:15:55;;;;;;;12.00;7.50;;;20.90;99.90;;;;;;5032027;28;20179;-60
2022/08/15 08:18:37;;;;;;;11.25;8.27;;;21.10;99.90;;;;;;5025279;28;20021;-61
2022/08/15 08:21:13;;;;;;;15.10;9.38;;;21.00;99.90;;;;;;5025383;28;20025;-61
2022/08/15 08:23:46;;;;;;;12.98;8.25;;;21.10;99.90;;;;;;5024194;28;20030;-60
2022/08/15 08:26:38;;;;;;;13.93;8.23;;;21.20;99.90;;;;;;5036964;28;20396;-60
2022/08/15 08:29:23;;;;;;;15.40;8.68;;;21.30;99.90;;;;;;5028928;28;20789;-60
2022/08/15 08:32:22;;;;;;;14.52;8.43;;;21.40;99.90;;;;;;5025578;28;20375;-58
2022/08/15 08:35:05;;;;;;;9.57;7.68;;;21.60;99.90;;;;;;5024020;28;20389;-59
2022/08/15 08:37:41;;;;;;;15.10;8.20;;;21.80;99.90;;;;;;5026618;28;20389;-58
2022/08/15 08:43:21;;;;;;;11.15;7.47;;;22.30;99.90;;;;;;5026998;28;20128;-60
2022/08/15 08:46:01;;;;;;;15.55;8.35;;;22.40;99.90;;;;;;5025910;28;20080;-60
2022/08/15 08:48:33;;;;;;;14.27;8.45;;;22.40;99.90;;;;;;5019033;28;20064;-59
2022/08/15 08:51:17;;;;;;;;;;;22.40;99.90;;;;;;5025348;28;20493;-59
2022/08/15 08:54:13;;;;;;;12.20;8.68;;;22.40;99.90;;;;;;5023060;28;19909;-60
2022/08/15 08:56:45;;;;;;;14.75;8.13;;;22.30;99.90;;;;;;5025630;28;20111;-60
2022/08/15 08:59:20;;;;;;;12.70;7.88;;;22.10;99.90;;;;;;5021423;28;20037;-59
2022/08/15 09:01:57;;;;;;;9.60;7.35;;;21.80;99.90;;;;;;5021711;28;20033;-60
2022/08/15 09:04:49;;;;;;;11.60;7.85;;;21.70;99.90;;;;;;5027405;28;20041;-60
2022/08/15 09:07:28;;;;;;;10.90;7.10;;;21.70;99.90;;;;;;5023859;28;20045;-60
2022/08/15 09:10:00;;;;;;;10.45;7.45;;;21.90;99.90;;;;;;5011390;28;20061;-60
2022/08/15 09:15:29;;;;;;;9.63;7.22;;;22.10;99.90;;;;;;5026693;28;20041;-60
2022/08/15 09:18:06;;;;;;;12.38;9.43;;;22.00;99.90;;;;;;5025062;28;20048;-59
2022/08/15 09:20:38;;;;;;;11.98;8.38;;;22.00;99.90;;;;;;5021613;28;20355;-59
2022/08/15 09:23:10;;;;;;;15.13;8.73;;;22.00;99.90;;;;;;5028267;28;20363;-59
2022/08/15 09:25:42;;;;;;;15.23;8.75;;;22.10;99.90;;;;;;5023876;28;20033;-59
2022/08/15 09:28:23;;;;;;;11.95;8.70;;;22.10;99.90;;;;;;5019605;28;20512;-59
2022/08/15 09:30:50;;;;;;;9.98;8.50;;;22.10;99.90;;;;;;5019308;28;20049;-60
2022/08/15 09:33:36;;;;;;;10.98;8.23;;;21.90;99.90;;;;;;5028160;28;20409;-61
2022/08/15 09:36:26;;;;;;;13.68;8.50;;;21.90;99.90;;;;;;5024483;28;20094;-60
2022/08/15 09:39:13;;;;;;;9.63;8.40;;;21.90;99.90;;;;;;5024444;28;20072;-59
2022/08/15 09:41:55;;;;;;;12.40;8.43;;;21.90;99.90;;;;;;5018157;28;20033;-59
2022/08/15 09:44:20;;;;;;;;;;;21.90;99.90;;;;;;5034545;28;20076;-58
2022/08/15 09:46:46;;;;;;;12.18;8.05;;;21.90;99.90;;;;;;5018277;28;19941;-60
2022/08/15 09:49:30;;;;;;;11.50;8.50;;;22.00;99.90;;;;;;5025359;28;20056;-60
2022/08/15 09:52:09;;;;;;;12.95;7.85;;;22.00;99.90;;;;;;5025065;28;20037;-61
2022/08/15 09:54:56;;;;;;;11.52;7.93;;;22.10;99.90;;;;;;5024855;28;20848;-59
2022/08/15 09:57:28;;;;;;;11.15;8.20;;;22.20;99.90;;;;;;5020679;28;20041;-60
2022/08/15 10:00:17;;;;;;;10.05;8.10;;;22.40;99.90;;;;;;5026077;28;20465;-60
2022/08/15 10:02:45;;;;;;;13.93;7.00;;;22.60;99.90;;;;;;5023335;28;20037;-60
2022/08/15 10:05:44;;;;;;;10.80;7.43;;;22.70;99.90;;;;;;5018843;28;20458;-60
2022/08/15 10:08:13;;;;;;;13.18;6.85;;;22.50;99.90;;;;;;5027365;28;20032;-60
2022/08/15 10:10:51;;;;;;;14.07;8.65;;;22.40;99.90;;;;;;5023853;28;20056;-59
2022/08/15 10:13:22;;;;;;;17.90;8.48;;;22.50;99.90;;;;;;5025278;28;20036;-59
2022/08/15 10:15:48;;;;;;;10.18;8.65;;;22.60;99.90;;;;;;5015045;28;20398;-59
2022/08/15 10:18:40;;;;;;;12.27;8.20;;;22.80;99.90;;;;;;5025725;28;20386;-60
2022/08/15 10:21:21;;;;;;;11.07;7.75;;;22.90;99.90;;;;;;4995356;28;20397;-59
2022/08/15 10:23:50;;;;;;;9.90;7.20;;;23.10;99.90;;;;;;5025719;28;20035;-60
2022/08/15 10:26:18;;;;;;;11.60;6.72;;;23.30;99.90;;;;;;5029675;28;20091;-60
2022/08/15 10:28:59;;;;;;;10.38;7.93;;;23.50;99.90;;;;;;5021449;28;20461;-60
2022/08/15 10:31:30;;;;;;;12.50;8.10;;;23.60;99.90;;;;;;5022951;28;20045;-60
2022/08/15 10:34:00;;;;;;;12.03;7.70;;;23.50;99.90;;;;;;5024988;28;20071;-60
2022/08/15 10:36:35;;;;;;;11.73;7.75;;;23.50;99.90;;;;;;5018670;28;20029;-60
2022/08/15 10:39:25;;;;;;;10.40;9.18;;;23.70;99.90;;;;;;5025087;28;20035;-60
2022/08/15 10:42:08;;;;;;;10.35;7.80;;;23.80;99.90;;;;;;5025097;28;20034;-60
2022/08/15 10:44:44;;;;;;;12.25;10.38;;;24.30;99.90;;;;;;5022261;28;20060;-59
2022/08/15 10:47:37;;;;;;;15.45;9.48;;;24.20;99.90;;;;;;5025765;28;20036;-59
2022/08/15 10:50:41;;;;;;;13.20;8.63;;;24.30;99.90;;;;;;5024271;28;20037;-59
2022/08/15 10:53:21;;;;;;;13.30;10.57;;;24.10;99.90;;;;;;4964667;28;20026;-59
2022/08/15 10:55:47;;;;;;;14.75;9.93;;;24.30;99.90;;;;;;4963067;28;20040;-59
2022/08/15 10:58:32;;;;;;;13.65;9.13;;;24.10;99.90;;;;;;4963178;28;20031;-60
2022/08/15 11:01:17;;;;;;;14.70;9.02;;;24.10;99.90;;;;;;4964457;28;20045;-60
2022/08/15 11:04:15;;;;;;;13.13;10.73;;;24.00;99.90;;;;;;4957175;28;20032;-59
2022/08/15 11:06:46;;;;;;;17.35;11.25;;;23.60;99.90;;;;;;4930827;28;20039;-60
2022/08/15 11:09:21;;;;;;;14.45;10.77;;;23.40;99.90;;;;;;4965614;28;20109;-59
2022/08/15 11:11:55;;;;;;;18.25;10.73;;;23.30;99.90;;;;;;4960996;28;20035;-58
2022/08/15 11:14:27;;;;;;;20.85;11.32;;;23.50;99.90;;;;;;4960097;28;20039;-59
2022/08/15 11:16:56;;;;;;;15.40;9.18;;;23.40;99.90;;;;;;4969872;28;20040;-59
2022/08/15 11:19:36;;;;;;;13.65;9.52;;;24.10;99.90;;;;;;4962273;28;20050;-59
2022/08/15 11:22:08;;;;;;;13.95;10.30;;;24.20;99.90;;;;;;4962410;28;20511;-59
2022/08/15 11:24:33;;;;;;;;;;;24.60;99.90;;;;;;4958537;28;20069;-59
2022/08/15 11:27:10;;;;;;;11.18;9.52;;;25.10;99.90;;;;;;4987414;28;20341;-60
2022/08/15 11:29:37;;;;;;;16.42;11.50;;;25.20;99.90;;;;;;5019514;28;20049;-60
2022/08/15 11:32:03;;;;;;;16.85;11.02;;;25.80;99.90;;;;;;5025186;28;20033;-60
2022/08/15 11:34:32;;;;;;;14.23;12.70;;;25.60;99.90;;;;;;5020423;28;20036;-60
2022/08/15 11:37:03;;;;;;;15.38;12.43;;;25.70;99.90;;;;;;5021203;28;20041;-60
2022/08/15 11:39:31;;;;;;;11.82;10.25;;;25.50;99.90;;;;;;5018358;28;20029;-59
2022/08/15 11:42:03;;;;;;;14.23;11.98;;;25.40;99.90;;;;;;5021498;28;20029;-59
2022/08/15 11:44:45;;;;;;;12.40;10.48;;;25.50;99.90;;;;;;5013965;28;20059;-59
2022/08/15 11:47:14;;;;;;;15.98;11.77;;;26.10;99.90;;;;;;5026829;28;20048;-60
2022/08/15 11:49:57;;;;;;;13.70;9.93;;;26.60;99.90;;;;;;5022916;28;20029;-60
2022/08/15 11:52:31;;;;;;;17.42;11.02;;;26.40;99.90;;;;;;5024220;28;20057;-60
2022/08/15 11:55:16;;;;;;;13.23;9.77;;;26.90;99.90;;;;;;5019561;28;20047;-61
2022/08/15 11:57:46;;;;;;;14.40;9.82;;;27.60;99.90;;;;;;5018028;28;20030;-59
2022/08/15 12:00:39;;;;;;;10.80;8.38;;;27.60;99.90;;;;;;5025892;28;20024;-60
2022/08/15 12:03:25;;;;;;;12.05;9.05;;;27.80;99.90;;;;;;5024153;28;20022;-60
2022/08/15 12:06:02;;;;;;;13.73;10.38;;;27.90;99.90;;;;;;5021857;28;20159;-60
2022/08/15 12:08:30;;;;;;;11.75;9.30;;;27.40;99.90;;;;;;5020359;28;20033;-59
2022/08/15 12:11:07;;;;;;;11.82;9.50;;;27.20;99.90;;;;;;5020672;28;20033;-59
2022/08/15 12:13:34;;;;;;;10.80;8.15;;;27.60;99.90;;;;;;5010592;28;20029;-59
2022/08/15 12:16:00;;;;;;;15.57;9.32;;;27.60;99.90;;;;;;5022752;28;20025;-60
2022/08/15 12:18:27;;;;;;;12.10;8.05;;;27.20;99.90;;;;;;5028288;28;20605;-60
2022/08/15 12:20:59;;;;;;;10.52;7.80;;;27.40;99.90;;;;;;5018511;28;20045;-60
2022/08/15 12:23:35;;;;;;;15.52;9.05;;;27.50;99.90;;;;;;5027358;28;20045;-60
2022/08/15 12:26:08;;;;;;;12.77;9.02;;;27.30;99.90;;;;;;5019021;28;20030;-60
2022/08/15 12:28:36;;;;;;;12.70;8.95;;;27.00;99.90;;;;;;5014338;28;20022;-58
2022/08/15 12:31:36;;;;;;;12.80;8.43;;;27.00;99.90;;;;;;5018947;28;20049;-59
2022/08/15 12:34:09;;;;;;;12.18;7.10;;;27.00;99.90;;;;;;5020534;28;20034;-61
2022/08/15 12:36:36;;;;;;;11.13;7.43;;;27.70;99.90;;;;;;5021542;28;20037;-60
2022/08/15 12:39:03;;;;;;;12.77;7.45;;;28.30;99.90;;;;;;5024478;28;20079;-61
2022/08/15 12:41:29;;;;;;;10.07;7.65;;;28.60;99.90;;;;;;5022589;28;20474;-60
2022/08/15 12:43:55;;;;;;;10.80;7.22;;;29.10;98.70;;;;;;5023969;28;20045;-60
2022/08/15 12:46:21;;;;;;;8.13;6.15;;;29.20;98.00;;;;;;5024636;28;20044;-60
2022/08/15 12:48:49;;;;;;;9.30;7.22;;;29.50;97.10;;;;;;5024540;28;20159;-60
2022/08/15 12:51:15;;;;;;;8.95;6.70;;;29.50;96.80;;;;;;5020854;28;20037;-60
2022/08/15 12:53:41;;;;;;;10.63;7.72;;;29.50;96.70;;;;;;5026016;28;20033;-60
2022/08/15 12:56:08;;;;;;;9.27;7.05;;;28.90;97.60;;;;;;5026998;28;20108;-60
2022/08/15 12:58:35;;;;;;;13.45;7.93;;;28.40;98.00;;;;;;5026250;28;20029;-60
2022/08/15 13:01:01;;;;;;;11.15;7.35;;;27.60;99.80;;;;;;5029660;28;20071;-60
2022/08/15 13:03:29;;;;;;;6.68;6.05;;;26.90;99.90;;;;;;5026432;28;20120;-60
2022/08/15 13:06:03;;;;;;;6.55;5.85;;;26.30;99.90;;;;;;5028969;28;20029;-60
2022/08/15 13:08:29;;;;;;;6.05;4.70;;;25.90;99.90;;;;;;5027317;28;20515;-59
2022/08/15 13:10:55;;;;;;;5.57;5.07;;;25.50;99.90;;;;;;5027349;28;20041;-60
2022/08/15 13:13:21;;;;;;;6.38;4.30;;;25.00;99.90;;;;;;5029614;28;20053;-60
2022/08/15 13:15:48;;;;;;;4.80;3.88;;;24.70;99.90;;;;;;5038676;28;20119;-60